sensor_id;sensor_type;location;lat;lon;timestamp;temperature;humidity
56123;DHT22;42426;46.104;19.656;2022-12-13T00:01:55;0.30;2201.60
56123;DHT22;42426;46.104;19.656;2022-12-13T00:04:23;0.30;2201.60
56123;DHT22;42426;46.104;19.656;2022-12-13T00:06:49;0.20;2201.60
56123;DHT22;42426;46.104;19.656;2022-12-13T00:09:17;0.20;2201.60
56123;DHT22;42426;46.104;19.656;2022-12-13T00:11:43;0.30;2201.60
56123;DHT22;42426;46.104;19.656;2022-12-13T00:14:10;0.30;2201.60
56123;DHT22;42426;46.104;19.656;2022-12-13T00:16:38;0.20;2201.60
56123;DHT22;42426;46.104;19.656;2022-12-13T00:19:05;0.20;2201.60
56123;DHT22;42426;46.104;19.656;2022-12-13T00:21:32;0.20;2201.60
56123;DHT22;42426;46.104;19.656;2022-12-13T00:23:59;0.10;2201.60
56123;DHT22;42426;46.104;19.656;2022-12-13T00:26:27;0.20;2201.60
56123;DHT22;42426;46.104;19.656;2022-12-13T00:28:54;0.10;2201.60
56123;DHT22;42426;46.104;19.656;2022-12-13T00:31:22;0.10;2201.60
56123;DHT22;42426;46.104;19.656;2022-12-13T00:33:48;0.10;2201.60
56123;DHT22;42426;46.104;19.656;2022-12-13T00:36:15;0.00;2201.60
56123;DHT22;42426;46.104;19.656;2022-12-13T00:38:41;0.00;2201.60
56123;DHT22;42426;46.104;19.656;2022-12-13T00:41:16;12.90;2201.60
56123;DHT22;42426;46.104;19.656;2022-12-13T00:43:44;0.00;2201.60
56123;DHT22;42426;46.104;19.656;2022-12-13T00:46:15;0.00;2201.60
56123;DHT22;42426;46.104;19.656;2022-12-13T00:48:42;0.00;2201.60
56123;DHT22;42426;46.104;19.656;2022-12-13T00:51:10;0.00;2201.60
56123;DHT22;42426;46.104;19.656;2022-12-13T00:53:36;12.90;2201.60
56123;DHT22;42426;46.104;19.656;2022-12-13T00:56:02;12.90;2201.60
56123;DHT22;42426;46.104;19.656;2022-12-13T00:58:28;13.00;2201.60
56123;DHT22;42426;46.104;19.656;2022-12-13T01:01:06;13.00;2201.60
56123;DHT22;42426;46.104;19.656;2022-12-13T01:03:32;13.00;2201.60
56123;DHT22;42426;46.104;19.656;2022-12-13T01:05:59;13.00;2201.60
56123;DHT22;42426;46.104;19.656;2022-12-13T01:08:26;13.00;2201.60
56123;DHT22;42426;46.104;19.656;2022-12-13T01:10:53;13.00;2201.60
56123;DHT22;42426;46.104;19.656;2022-12-13T01:13:19;13.00;2201.60
56123;DHT22;42426;46.104;19.656;2022-12-13T01:15:46;12.90;2201.60
56123;DHT22;42426;46.104;19.656;2022-12-13T01:18:13;12.90;2201.60
56123;DHT22;42426;46.104;19.656;2022-12-13T01:21:17;12.90;2201.60
56123;DHT22;42426;46.104;19.656;2022-12-13T01:23:42;12.90;2201.60
56123;DHT22;42426;46.104;19.656;2022-12-13T01:26:18;12.90;2201.60
56123;DHT22;42426;46.104;19.656;2022-12-13T01:28:44;13.00;2201.60
56123;DHT22;42426;46.104;19.656;2022-12-13T01:31:15;13.00;2201.60
56123;DHT22;42426;46.104;19.656;2022-12-13T01:33:41;13.00;2201.60
56123;DHT22;42426;46.104;19.656;2022-12-13T01:36:18;13.10;2201.60
56123;DHT22;42426;46.104;19.656;2022-12-13T01:38:44;13.10;2201.60
56123;DHT22;42426;46.104;19.656;2022-12-13T01:41:16;13.10;2201.60
56123;DHT22;42426;46.104;19.656;2022-12-13T01:46:09;13.10;2201.60
56123;DHT22;42426;46.104;19.656;2022-12-13T01:48:39;13.00;2201.60
56123;DHT22;42426;46.104;19.656;2022-12-13T01:51:09;13.10;2201.60
56123;DHT22;42426;46.104;19.656;2022-12-13T01:53:39;13.10;2201.60
56123;DHT22;42426;46.104;19.656;2022-12-13T01:56:10;13.20;2201.60
56123;DHT22;42426;46.104;19.656;2022-12-13T01:58:39;13.10;2201.60
56123;DHT22;42426;46.104;19.656;2022-12-13T02:01:06;13.10;2201.60
56123;DHT22;42426;46.104;19.656;2022-12-13T02:03:33;13.10;2201.60
56123;DHT22;42426;46.104;19.656;2022-12-13T02:06:03;13.00;2201.60
56123;DHT22;42426;46.104;19.656;2022-12-13T02:08:30;13.10;2201.60
56123;DHT22;42426;46.104;19.656;2022-12-13T02:10:56;13.40;2201.60
56123;DHT22;42426;46.104;19.656;2022-12-13T02:13:22;13.20;2201.60
56123;DHT22;42426;46.104;19.656;2022-12-13T02:26:57;13.10;2201.60
56123;DHT22;42426;46.104;19.656;2022-12-13T02:30:38;13.20;2201.60
56123;DHT22;42426;46.104;19.656;2022-12-13T02:35:21;13.20;2201.60
56123;DHT22;42426;46.104;19.656;2022-12-13T02:38:15;13.20;2201.60
56123;DHT22;42426;46.104;19.656;2022-12-13T02:40:55;13.20;2201.60
56123;DHT22;42426;46.104;19.656;2022-12-13T02:43:28;13.20;2201.60
56123;DHT22;42426;46.104;19.656;2022-12-13T02:45:59;13.30;2201.60
56123;DHT22;42426;46.104;19.656;2022-12-13T02:48:36;13.30;2201.60
56123;DHT22;42426;46.104;19.656;2022-12-13T02:51:04;13.30;2201.60
56123;DHT22;42426;46.104;19.656;2022-12-13T02:53:33;13.20;2201.60
56123;DHT22;42426;46.104;19.656;2022-12-13T02:55:59;13.30;2201.60
56123;DHT22;42426;46.104;19.656;2022-12-13T02:58:30;13.30;2201.60
56123;DHT22;42426;46.104;19.656;2022-12-13T03:03:45;13.30;2201.60
56123;DHT22;42426;46.104;19.656;2022-12-13T03:15:24;13.30;2201.60
56123;DHT22;42426;46.104;19.656;2022-12-13T03:17:55;13.30;2201.60
56123;DHT22;42426;46.104;19.656;2022-12-13T03:20:25;13.30;2201.60
56123;DHT22;42426;46.104;19.656;2022-12-13T03:22:52;13.40;2201.60
56123;DHT22;42426;46.104;19.656;2022-12-13T03:25:20;13.40;2201.60
56123;DHT22;42426;46.104;19.656;2022-12-13T03:27:46;13.50;2201.60
56123;DHT22;42426;46.104;19.656;2022-12-13T03:30:12;13.40;2201.60
56123;DHT22;42426;46.104;19.656;2022-12-13T03:32:38;13.30;2201.60
56123;DHT22;42426;46.104;19.656;2022-12-13T03:35:05;13.40;2201.60
56123;DHT22;42426;46.104;19.656;2022-12-13T03:37:31;13.40;2201.60
56123;DHT22;42426;46.104;19.656;2022-12-13T03:39:58;13.40;2201.60
56123;DHT22;42426;46.104;19.656;2022-12-13T03:42:24;13.50;2201.60
56123;DHT22;42426;46.104;19.656;2022-12-13T03:44:50;13.50;2201.60
56123;DHT22;42426;46.104;19.656;2022-12-13T03:47:16;13.50;2201.60
56123;DHT22;42426;46.104;19.656;2022-12-13T03:49:42;13.50;2201.60
56123;DHT22;42426;46.104;19.656;2022-12-13T03:52:08;13.50;2201.60
56123;DHT22;42426;46.104;19.656;2022-12-13T03:54:33;13.50;2201.60
56123;DHT22;42426;46.104;19.656;2022-12-13T03:56:59;13.50;2201.60
56123;DHT22;42426;46.104;19.656;2022-12-13T03:59:26;13.40;2201.60
56123;DHT22;42426;46.104;19.656;2022-12-13T04:01:52;13.50;2201.60
56123;DHT22;42426;46.104;19.656;2022-12-13T04:04:17;13.60;2201.60
56123;DHT22;42426;46.104;19.656;2022-12-13T04:06:43;13.50;2201.60
56123;DHT22;42426;46.104;19.656;2022-12-13T04:09:09;13.50;2201.60
56123;DHT22;42426;46.104;19.656;2022-12-13T04:11:35;13.50;2201.60
56123;DHT22;42426;46.104;19.656;2022-12-13T04:14:19;13.50;2201.60
56123;DHT22;42426;46.104;19.656;2022-12-13T04:16:46;13.50;2201.60
56123;DHT22;42426;46.104;19.656;2022-12-13T04:19:12;13.60;2201.60
56123;DHT22;42426;46.104;19.656;2022-12-13T04:21:38;13.60;2201.60
56123;DHT22;42426;46.104;19.656;2022-12-13T04:24:04;13.60;2201.60
56123;DHT22;42426;46.104;19.656;2022-12-13T04:26:29;13.60;2201.60
56123;DHT22;42426;46.104;19.656;2022-12-13T04:28:55;13.60;2201.60
56123;DHT22;42426;46.104;19.656;2022-12-13T04:31:22;13.60;2201.60
56123;DHT22;42426;46.104;19.656;2022-12-13T04:33:49;13.60;2201.60
56123;DHT22;42426;46.104;19.656;2022-12-13T04:36:15;13.70;2201.60
56123;DHT22;42426;46.104;19.656;2022-12-13T04:38:45;13.70;2201.60
56123;DHT22;42426;46.104;19.656;2022-12-13T04:41:16;13.70;2201.60
56123;DHT22;42426;46.104;19.656;2022-12-13T04:43:43;13.70;2201.60
56123;DHT22;42426;46.104;19.656;2022-12-13T04:46:09;13.70;2201.60
56123;DHT22;42426;46.104;19.656;2022-12-13T04:48:35;13.60;2201.60
56123;DHT22;42426;46.104;19.656;2022-12-13T04:51:01;13.60;2201.60
56123;DHT22;42426;46.104;19.656;2022-12-13T04:53:29;13.60;2201.60
56123;DHT22;42426;46.104;19.656;2022-12-13T04:55:54;13.70;2201.60
56123;DHT22;42426;46.104;19.656;2022-12-13T04:58:20;13.70;2201.60
56123;DHT22;42426;46.104;19.656;2022-12-13T05:00:46;13.70;2201.60
56123;DHT22;42426;46.104;19.656;2022-12-13T05:03:14;13.70;2201.60
56123;DHT22;42426;46.104;19.656;2022-12-13T05:05:40;13.70;2201.60
56123;DHT22;42426;46.104;19.656;2022-12-13T05:08:06;13.70;2201.60
56123;DHT22;42426;46.104;19.656;2022-12-13T05:10:33;13.70;2201.60
56123;DHT22;42426;46.104;19.656;2022-12-13T05:13:00;13.70;2201.60
56123;DHT22;42426;46.104;19.656;2022-12-13T05:15:26;13.70;2201.60
56123;DHT22;42426;46.104;19.656;2022-12-13T05:17:52;38.40;2201.60
56123;DHT22;42426;46.104;19.656;2022-12-13T05:20:17;38.40;2201.60
56123;DHT22;42426;46.104;19.656;2022-12-13T05:22:43;38.40;2201.60
56123;DHT22;42426;46.104;19.656;2022-12-13T05:25:09;38.40;2201.60
56123;DHT22;42426;46.104;19.656;2022-12-13T05:27:35;38.40;2201.60
56123;DHT22;42426;46.104;19.656;2022-12-13T05:30:01;38.40;2201.60
56123;DHT22;42426;46.104;19.656;2022-12-13T05:32:27;38.40;2201.60
56123;DHT22;42426;46.104;19.656;2022-12-13T05:34:52;38.50;2201.60
56123;DHT22;42426;46.104;19.656;2022-12-13T05:37:18;38.50;2201.60
56123;DHT22;42426;46.104;19.656;2022-12-13T05:39:44;38.50;2201.60
56123;DHT22;42426;46.104;19.656;2022-12-13T05:42:10;38.50;2201.60
56123;DHT22;42426;46.104;19.656;2022-12-13T05:44:35;38.50;2201.60
56123;DHT22;42426;46.104;19.656;2022-12-13T05:47:02;38.50;2201.60
56123;DHT22;42426;46.104;19.656;2022-12-13T05:49:28;38.50;2201.60
56123;DHT22;42426;46.104;19.656;2022-12-13T05:51:54;38.40;2201.60
56123;DHT22;42426;46.104;19.656;2022-12-13T05:54:20;38.40;2201.60
56123;DHT22;42426;46.104;19.656;2022-12-13T05:56:45;38.40;2201.60
56123;DHT22;42426;46.104;19.656;2022-12-13T05:59:11;38.40;2201.60
56123;DHT22;42426;46.104;19.656;2022-12-13T06:01:37;38.50;2201.60
56123;DHT22;42426;46.104;19.656;2022-12-13T06:04:02;38.50;2201.60
56123;DHT22;42426;46.104;19.656;2022-12-13T06:06:28;38.50;2201.60
56123;DHT22;42426;46.104;19.656;2022-12-13T06:08:54;38.60;2201.60
56123;DHT22;42426;46.104;19.656;2022-12-13T06:11:20;38.60;2201.60
56123;DHT22;42426;46.104;19.656;2022-12-13T06:13:49;38.60;2201.60
56123;DHT22;42426;46.104;19.656;2022-12-13T06:16:16;38.60;2201.60
56123;DHT22;42426;46.104;19.656;2022-12-13T06:18:42;38.60;2201.60
56123;DHT22;42426;46.104;19.656;2022-12-13T06:21:08;38.60;2201.60
56123;DHT22;42426;46.104;19.656;2022-12-13T06:23:34;38.50;2201.60
56123;DHT22;42426;46.104;19.656;2022-12-13T06:26:05;38.50;2201.60
56123;DHT22;42426;46.104;19.656;2022-12-13T06:28:31;38.60;2201.60
56123;DHT22;42426;46.104;19.656;2022-12-13T06:31:01;38.60;2201.60
56123;DHT22;42426;46.104;19.656;2022-12-13T06:33:28;38.60;2201.60
56123;DHT22;42426;46.104;19.656;2022-12-13T06:35:57;38.60;2201.60
56123;DHT22;42426;46.104;19.656;2022-12-13T06:38:24;38.60;2201.60
56123;DHT22;42426;46.104;19.656;2022-12-13T06:40:50;38.60;2201.60
56123;DHT22;42426;46.104;19.656;2022-12-13T06:43:18;38.60;2201.60
56123;DHT22;42426;46.104;19.656;2022-12-13T06:45:44;38.60;2201.60
56123;DHT22;42426;46.104;19.656;2022-12-13T06:48:10;38.60;2201.60
56123;DHT22;42426;46.104;19.656;2022-12-13T06:50:36;38.60;2201.60
56123;DHT22;42426;46.104;19.656;2022-12-13T06:53:02;38.60;2201.60
56123;DHT22;42426;46.104;19.656;2022-12-13T06:55:28;38.60;2201.60
56123;DHT22;42426;46.104;19.656;2022-12-13T06:57:58;38.60;2201.60
56123;DHT22;42426;46.104;19.656;2022-12-13T07:00:24;38.60;2201.60
56123;DHT22;42426;46.104;19.656;2022-12-13T07:02:54;38.60;2201.60
56123;DHT22;42426;46.104;19.656;2022-12-13T07:05:20;38.70;2201.60
56123;DHT22;42426;46.104;19.656;2022-12-13T07:07:46;38.60;2201.60
56123;DHT22;42426;46.104;19.656;2022-12-13T07:10:12;38.60;2201.60
56123;DHT22;42426;46.104;19.656;2022-12-13T07:12:38;38.60;2201.60
56123;DHT22;42426;46.104;19.656;2022-12-13T07:15:04;38.60;2201.60
56123;DHT22;42426;46.104;19.656;2022-12-13T07:17:30;38.70;2201.60
56123;DHT22;42426;46.104;19.656;2022-12-13T07:19:56;38.60;2201.60
56123;DHT22;42426;46.104;19.656;2022-12-13T07:22:22;38.50;2201.60
56123;DHT22;42426;46.104;19.656;2022-12-13T07:24:47;38.60;2201.60
56123;DHT22;42426;46.104;19.656;2022-12-13T07:27:13;38.50;2201.60
56123;DHT22;42426;46.104;19.656;2022-12-13T07:29:39;38.60;2201.60
56123;DHT22;42426;46.104;19.656;2022-12-13T07:32:06;38.50;2201.60
56123;DHT22;42426;46.104;19.656;2022-12-13T07:34:31;38.50;2201.60
56123;DHT22;42426;46.104;19.656;2022-12-13T07:36:57;38.50;2201.60
56123;DHT22;42426;46.104;19.656;2022-12-13T07:39:24;38.50;2201.60
56123;DHT22;42426;46.104;19.656;2022-12-13T07:41:56;38.40;2201.60
56123;DHT22;42426;46.104;19.656;2022-12-13T07:44:22;38.40;2201.60
56123;DHT22;42426;46.104;19.656;2022-12-13T07:46:50;38.40;2201.60
56123;DHT22;42426;46.104;19.656;2022-12-13T07:49:16;13.70;2201.60
56123;DHT22;42426;46.104;19.656;2022-12-13T07:51:42;13.70;2201.60
56123;DHT22;42426;46.104;19.656;2022-12-13T07:54:07;13.70;2201.60
56123;DHT22;42426;46.104;19.656;2022-12-13T07:56:34;13.60;2201.60
56123;DHT22;42426;46.104;19.656;2022-12-13T07:59:00;13.60;2201.60
56123;DHT22;42426;46.104;19.656;2022-12-13T08:01:26;13.50;2201.60
56123;DHT22;42426;46.104;19.656;2022-12-13T08:03:53;13.50;2201.60
56123;DHT22;42426;46.104;19.656;2022-12-13T08:06:18;13.40;2201.60
56123;DHT22;42426;46.104;19.656;2022-12-13T08:08:44;13.30;2201.60
56123;DHT22;42426;46.104;19.656;2022-12-13T08:11:13;13.30;2201.60
56123;DHT22;42426;46.104;19.656;2022-12-13T08:13:41;13.30;2201.60
56123;DHT22;42426;46.104;19.656;2022-12-13T08:16:10;13.20;2201.60
56123;DHT22;42426;46.104;19.656;2022-12-13T08:18:37;13.20;2201.60
56123;DHT22;42426;46.104;19.656;2022-12-13T08:21:06;13.00;2201.60
56123;DHT22;42426;46.104;19.656;2022-12-13T08:23:33;13.10;2201.60
56123;DHT22;42426;46.104;19.656;2022-12-13T08:26:01;13.10;2201.60
56123;DHT22;42426;46.104;19.656;2022-12-13T08:28:30;13.00;2201.60
56123;DHT22;42426;46.104;19.656;2022-12-13T08:31:05;13.00;2201.60
56123;DHT22;42426;46.104;19.656;2022-12-13T08:33:33;13.00;2201.60
56123;DHT22;42426;46.104;19.656;2022-12-13T08:36:10;12.90;2201.60
56123;DHT22;42426;46.104;19.656;2022-12-13T08:38:36;12.90;2201.60
56123;DHT22;42426;46.104;19.656;2022-12-13T08:41:03;12.90;2201.60
56123;DHT22;42426;46.104;19.656;2022-12-13T08:43:29;0.00;2201.60
56123;DHT22;42426;46.104;19.656;2022-12-13T08:45:55;0.10;2201.60
56123;DHT22;42426;46.104;19.656;2022-12-13T08:48:21;0.10;2201.60
56123;DHT22;42426;46.104;19.656;2022-12-13T08:50:49;0.20;2201.60
56123;DHT22;42426;46.104;19.656;2022-12-13T08:53:14;0.20;2201.60
56123;DHT22;42426;46.104;19.656;2022-12-13T08:55:40;0.30;2201.60
56123;DHT22;42426;46.104;19.656;2022-12-13T08:58:06;0.30;2201.60
56123;DHT22;42426;46.104;19.656;2022-12-13T09:00:34;0.40;2201.60
56123;DHT22;42426;46.104;19.656;2022-12-13T09:03:00;0.40;2201.60
56123;DHT22;42426;46.104;19.656;2022-12-13T09:05:27;0.50;2201.60
56123;DHT22;42426;46.104;19.656;2022-12-13T09:07:56;0.50;2201.60
56123;DHT22;42426;46.104;19.656;2022-12-13T09:10:23;0.50;2201.60
56123;DHT22;42426;46.104;19.656;2022-12-13T09:12:50;0.60;2201.60
56123;DHT22;42426;46.104;19.656;2022-12-13T09:15:18;0.70;2201.60
56123;DHT22;42426;46.104;19.656;2022-12-13T09:17:43;0.70;2201.60
56123;DHT22;42426;46.104;19.656;2022-12-13T09:20:10;0.70;2201.60
56123;DHT22;42426;46.104;19.656;2022-12-13T09:22:36;0.80;2201.60
56123;DHT22;42426;46.104;19.656;2022-12-13T09:25:04;0.80;2201.60
56123;DHT22;42426;46.104;19.656;2022-12-13T09:27:31;0.90;2201.60
56123;DHT22;42426;46.104;19.656;2022-12-13T09:29:57;0.90;2201.60
56123;DHT22;42426;46.104;19.656;2022-12-13T09:32:24;0.90;2201.60
56123;DHT22;42426;46.104;19.656;2022-12-13T09:34:50;25.60;2201.60
56123;DHT22;42426;46.104;19.656;2022-12-13T09:37:16;25.60;2201.60
56123;DHT22;42426;46.104;19.656;2022-12-13T09:39:42;25.60;2201.60
56123;DHT22;42426;46.104;19.656;2022-12-13T09:42:17;25.60;2201.60
56123;DHT22;42426;46.104;19.656;2022-12-13T09:44:54;25.60;2201.60
56123;DHT22;42426;46.104;19.656;2022-12-13T09:49:57;25.80;2201.60
56123;DHT22;42426;46.104;19.656;2022-12-13T09:52:24;25.70;2201.60
56123;DHT22;42426;46.104;19.656;2022-12-13T09:54:54;25.70;2201.60
56123;DHT22;42426;46.104;19.656;2022-12-13T09:57:30;25.80;2201.60
56123;DHT22;42426;46.104;19.656;2022-12-13T09:59:57;25.80;2201.60
56123;DHT22;42426;46.104;19.656;2022-12-13T10:02:30;25.90;2201.60
56123;DHT22;42426;46.104;19.656;2022-12-13T10:07:40;25.90;2201.60
56123;DHT22;42426;46.104;19.656;2022-12-13T10:10:06;25.90;2201.60
56123;DHT22;42426;46.104;19.656;2022-12-13T10:12:32;26.00;2201.60
56123;DHT22;42426;46.104;19.656;2022-12-13T10:15:00;26.00;2201.60
56123;DHT22;42426;46.104;19.656;2022-12-13T10:17:32;26.10;2201.60
56123;DHT22;42426;46.104;19.656;2022-12-13T10:19:58;26.10;2201.60
56123;DHT22;42426;46.104;19.656;2022-12-13T10:22:25;26.10;2201.60
56123;DHT22;42426;46.104;19.656;2022-12-13T10:25:00;26.20;2201.60
56123;DHT22;42426;46.104;19.656;2022-12-13T10:27:29;26.10;2201.60
56123;DHT22;42426;46.104;19.656;2022-12-13T10:32:32;26.30;2201.60
56123;DHT22;42426;46.104;19.656;2022-12-13T10:35:29;26.30;2201.60
56123;DHT22;42426;46.104;19.656;2022-12-13T10:37:59;26.40;2201.60
56123;DHT22;42426;46.104;19.656;2022-12-13T10:43:23;26.30;2201.60
56123;DHT22;42426;46.104;19.656;2022-12-13T10:51:05;26.40;2201.60
56123;DHT22;42426;46.104;19.656;2022-12-13T10:53:55;26.40;2201.60
56123;DHT22;42426;46.104;19.656;2022-12-13T10:56:20;26.50;2201.60
56123;DHT22;42426;46.104;19.656;2022-12-13T10:58:48;51.20;2227.20
56123;DHT22;42426;46.104;19.656;2022-12-13T11:04:31;51.20;2227.20
56123;DHT22;42426;46.104;19.656;2022-12-13T11:07:00;51.20;2227.20
56123;DHT22;42426;46.104;19.656;2022-12-13T11:11:56;51.30;2227.20
56123;DHT22;42426;46.104;19.656;2022-12-13T11:14:31;51.30;2227.20
56123;DHT22;42426;46.104;19.656;2022-12-13T11:17:04;51.30;2227.20
56123;DHT22;42426;46.104;19.656;2022-12-13T11:19:39;51.40;2227.20
56123;DHT22;42426;46.104;19.656;2022-12-13T11:22:09;51.40;2227.20
56123;DHT22;42426;46.104;19.656;2022-12-13T11:24:49;51.40;2227.20
56123;DHT22;42426;46.104;19.656;2022-12-13T11:27:26;51.40;2227.20
56123;DHT22;42426;46.104;19.656;2022-12-13T11:30:42;51.50;2227.20
56123;DHT22;42426;46.104;19.656;2022-12-13T11:46:39;51.60;2227.20
56123;DHT22;42426;46.104;19.656;2022-12-13T11:49:14;51.60;2227.20
56123;DHT22;42426;46.104;19.656;2022-12-13T11:51:55;51.60;2227.20
56123;DHT22;42426;46.104;19.656;2022-12-13T11:54:45;51.60;2227.20
56123;DHT22;42426;46.104;19.656;2022-12-13T12:00:33;51.60;2227.20
56123;DHT22;42426;46.104;19.656;2022-12-13T12:05:42;51.70;2227.20
56123;DHT22;42426;46.104;19.656;2022-12-13T12:08:32;51.70;2227.20
56123;DHT22;42426;46.104;19.656;2022-12-13T12:11:23;51.70;2227.20
56123;DHT22;42426;46.104;19.656;2022-12-13T12:14:12;51.70;2227.20
56123;DHT22;42426;46.104;19.656;2022-12-13T12:16:54;51.60;2227.20
56123;DHT22;42426;46.104;19.656;2022-12-13T12:19:34;51.70;2227.20
56123;DHT22;42426;46.104;19.656;2022-12-13T12:22:14;51.70;2227.20
56123;DHT22;42426;46.104;19.656;2022-12-13T12:25:12;51.70;2227.20
56123;DHT22;42426;46.104;19.656;2022-12-13T12:30:12;51.70;2227.20
56123;DHT22;42426;46.104;19.656;2022-12-13T12:38:19;51.80;2227.20
56123;DHT22;42426;46.104;19.656;2022-12-13T12:41:34;51.80;2227.20
56123;DHT22;42426;46.104;19.656;2022-12-13T12:52:58;51.90;2227.20
56123;DHT22;42426;46.104;19.656;2022-12-13T12:55:44;51.80;2227.20
56123;DHT22;42426;46.104;19.656;2022-12-13T12:58:27;51.90;2227.20
56123;DHT22;42426;46.104;19.656;2022-12-13T13:03:37;51.90;2227.20
56123;DHT22;42426;46.104;19.656;2022-12-13T13:06:29;51.90;2227.20
56123;DHT22;42426;46.104;19.656;2022-12-13T13:09:07;51.90;2227.20
56123;DHT22;42426;46.104;19.656;2022-12-13T13:11:36;51.80;2227.20
56123;DHT22;42426;46.104;19.656;2022-12-13T13:14:24;51.80;2227.20
56123;DHT22;42426;46.104;19.656;2022-12-13T13:16:51;51.80;2227.20
56123;DHT22;42426;46.104;19.656;2022-12-13T13:21:47;51.90;2227.20
56123;DHT22;42426;46.104;19.656;2022-12-13T13:26:46;51.90;2227.20
56123;DHT22;42426;46.104;19.656;2022-12-13T13:34:42;51.80;2227.20
56123;DHT22;42426;46.104;19.656;2022-12-13T13:43:02;51.80;2227.20
56123;DHT22;42426;46.104;19.656;2022-12-13T13:45:52;51.80;2227.20
56123;DHT22;42426;46.104;19.656;2022-12-13T13:57:36;51.70;2227.20
56123;DHT22;42426;46.104;19.656;2022-12-13T14:00:20;51.70;2227.20
56123;DHT22;42426;46.104;19.656;2022-12-13T14:20:36;51.50;2227.20
56123;DHT22;42426;46.104;19.656;2022-12-13T14:28:58;51.40;2227.20
56123;DHT22;42426;46.104;19.656;2022-12-13T14:31:36;51.40;2227.20
56123;DHT22;42426;46.104;19.656;2022-12-13T14:34:05;51.40;2227.20
56123;DHT22;42426;46.104;19.656;2022-12-13T14:36:34;51.30;2227.20
56123;DHT22;42426;46.104;19.656;2022-12-13T14:39:19;51.30;2227.20
56123;DHT22;42426;46.104;19.656;2022-12-13T14:41:53;51.20;2227.20
56123;DHT22;42426;46.104;19.656;2022-12-13T14:46:53;51.20;2227.20
56123;DHT22;42426;46.104;19.656;2022-12-13T14:49:20;51.20;2227.20
56123;DHT22;42426;46.104;19.656;2022-12-13T14:51:49;26.50;2201.60
56123;DHT22;42426;46.104;19.656;2022-12-13T14:54:21;26.50;2201.60
56123;DHT22;42426;46.104;19.656;2022-12-13T14:56:55;26.50;2201.60
56123;DHT22;42426;46.104;19.656;2022-12-13T14:59:22;26.50;2201.60
56123;DHT22;42426;46.104;19.656;2022-12-13T15:02:03;26.40;2201.60
56123;DHT22;42426;46.104;19.656;2022-12-13T15:04:31;26.40;2201.60
56123;DHT22;42426;46.104;19.656;2022-12-13T15:07:26;26.40;2201.60
56123;DHT22;42426;46.104;19.656;2022-12-13T15:09:58;26.40;2201.60
56123;DHT22;42426;46.104;19.656;2022-12-13T15:12:25;26.30;2201.60
56123;DHT22;42426;46.104;19.656;2022-12-13T15:15:04;26.30;2201.60
56123;DHT22;42426;46.104;19.656;2022-12-13T15:17:39;26.20;2201.60
56123;DHT22;42426;46.104;19.656;2022-12-13T15:20:26;26.20;2201.60
56123;DHT22;42426;46.104;19.656;2022-12-13T15:23:14;26.20;2201.60
56123;DHT22;42426;46.104;19.656;2022-12-13T15:25:44;26.20;2201.60
56123;DHT22;42426;46.104;19.656;2022-12-13T15:28:14;26.10;2201.60
56123;DHT22;42426;46.104;19.656;2022-12-13T15:30:42;26.20;2201.60
56123;DHT22;42426;46.104;19.656;2022-12-13T15:35:41;26.10;2201.60
56123;DHT22;42426;46.104;19.656;2022-12-13T15:38:12;26.10;2201.60
56123;DHT22;42426;46.104;19.656;2022-12-13T15:40:46;26.20;2201.60
56123;DHT22;42426;46.104;19.656;2022-12-13T15:43:15;26.20;2201.60
56123;DHT22;42426;46.104;19.656;2022-12-13T15:45:44;26.20;2201.60
56123;DHT22;42426;46.104;19.656;2022-12-13T15:48:38;26.20;2201.60
56123;DHT22;42426;46.104;19.656;2022-12-13T15:51:16;26.30;2201.60
56123;DHT22;42426;46.104;19.656;2022-12-13T15:58:59;26.30;2201.60
56123;DHT22;42426;46.104;19.656;2022-12-13T16:01:30;26.30;2201.60
56123;DHT22;42426;46.104;19.656;2022-12-13T16:03:57;26.30;2201.60
56123;DHT22;42426;46.104;19.656;2022-12-13T16:06:25;26.30;2201.60
56123;DHT22;42426;46.104;19.656;2022-12-13T16:08:53;26.40;2201.60
56123;DHT22;42426;46.104;19.656;2022-12-13T16:11:30;26.30;2201.60
56123;DHT22;42426;46.104;19.656;2022-12-13T16:14:37;26.30;2201.60
56123;DHT22;42426;46.104;19.656;2022-12-13T16:17:18;26.30;2201.60
56123;DHT22;42426;46.104;19.656;2022-12-13T16:19:45;26.30;2201.60
56123;DHT22;42426;46.104;19.656;2022-12-13T16:22:10;26.30;2201.60
56123;DHT22;42426;46.104;19.656;2022-12-13T16:24:36;26.40;2201.60
56123;DHT22;42426;46.104;19.656;2022-12-13T16:27:02;26.40;2201.60
56123;DHT22;42426;46.104;19.656;2022-12-13T16:29:28;26.40;2201.60
56123;DHT22;42426;46.104;19.656;2022-12-13T16:31:53;26.40;2201.60
56123;DHT22;42426;46.104;19.656;2022-12-13T16:34:22;26.40;2201.60
56123;DHT22;42426;46.104;19.656;2022-12-13T16:36:47;26.40;2201.60
56123;DHT22;42426;46.104;19.656;2022-12-13T16:39:13;26.40;2201.60
56123;DHT22;42426;46.104;19.656;2022-12-13T16:41:42;26.40;2201.60
56123;DHT22;42426;46.104;19.656;2022-12-13T16:44:19;26.40;2201.60
56123;DHT22;42426;46.104;19.656;2022-12-13T16:46:46;26.40;2201.60
56123;DHT22;42426;46.104;19.656;2022-12-13T16:49:24;26.40;2201.60
56123;DHT22;42426;46.104;19.656;2022-12-13T16:51:50;26.40;2201.60
56123;DHT22;42426;46.104;19.656;2022-12-13T16:54:18;26.40;2201.60
56123;DHT22;42426;46.104;19.656;2022-12-13T16:56:44;26.40;2201.60
56123;DHT22;42426;46.104;19.656;2022-12-13T16:59:15;26.40;2201.60
56123;DHT22;42426;46.104;19.656;2022-12-13T17:01:41;26.40;2201.60
56123;DHT22;42426;46.104;19.656;2022-12-13T17:04:12;26.40;2201.60
56123;DHT22;42426;46.104;19.656;2022-12-13T17:06:39;26.40;2201.60
56123;DHT22;42426;46.104;19.656;2022-12-13T17:09:06;26.50;2201.60
56123;DHT22;42426;46.104;19.656;2022-12-13T17:11:32;26.50;2201.60
56123;DHT22;42426;46.104;19.656;2022-12-13T17:13:58;26.50;2201.60
56123;DHT22;42426;46.104;19.656;2022-12-13T17:16:25;26.50;2201.60
56123;DHT22;42426;46.104;19.656;2022-12-13T17:18:51;26.50;2201.60
56123;DHT22;42426;46.104;19.656;2022-12-13T17:21:17;26.40;2201.60
56123;DHT22;42426;46.104;19.656;2022-12-13T17:23:43;26.40;2201.60
56123;DHT22;42426;46.104;19.656;2022-12-13T17:26:10;26.40;2201.60
56123;DHT22;42426;46.104;19.656;2022-12-13T17:28:37;26.40;2201.60
56123;DHT22;42426;46.104;19.656;2022-12-13T17:31:07;26.40;2201.60
56123;DHT22;42426;46.104;19.656;2022-12-13T17:33:33;26.40;2201.60
56123;DHT22;42426;46.104;19.656;2022-12-13T17:36:04;26.50;2201.60